createdAt,value
2022-07-30T00:02:16.590Z,99.90
2022-07-30T00:12:18.267Z,99.90
2022-07-30T00:22:19.929Z,99.90
2022-07-30T00:32:21.871Z,99.90
2022-07-30T00:42:25.866Z,99.90
2022-07-30T00:52:27.535Z,99.90
2022-07-30T01:02:30.484Z,99.90
2022-07-30T01:12:32.791Z,99.90
2022-07-30T01:22:57.755Z,99.90
2022-07-30T01:33:00.727Z,99.90
2022-07-30T01:43:03.540Z,99.90
2022-07-30T01:53:07.087Z,99.90
2022-07-30T02:03:10.819Z,99.90
2022-07-30T02:13:19.148Z,99.90
2022-07-30T02:23:23.488Z,99.90
2022-07-30T02:33:29.218Z,99.90
2022-07-30T02:43:35.399Z,99.90
2022-07-30T02:53:39.945Z,99.90
2022-07-30T03:03:45.219Z,99.90
2022-07-30T03:13:47.006Z,99.90
2022-07-30T03:23:50.719Z,99.90
2022-07-30T03:33:52.573Z,99.90
2022-07-30T03:43:56.166Z,99.90
2022-07-30T03:53:57.956Z,99.90
2022-07-30T04:04:08.826Z,99.90
2022-07-30T04:14:10.870Z,99.90
2022-07-30T04:24:13.893Z,99.90
2022-07-30T04:34:16.182Z,99.90
2022-07-30T04:44:19.219Z,99.90
2022-07-30T04:54:22.637Z,99.90
2022-07-30T05:04:26.400Z,99.90
2022-07-30T05:14:28.685Z,99.90
2022-07-30T05:24:30.354Z,99.90
2022-07-30T05:34:32.063Z,99.90
2022-07-30T05:44:33.848Z,99.90
2022-07-30T05:54:35.502Z,99.90
2022-07-30T06:04:37.233Z,99.90
2022-07-30T06:14:48.833Z,99.90
2022-07-30T06:24:50.484Z,99.90
2022-07-30T06:35:01.066Z,99.90
2022-07-30T06:45:06.465Z,99.90
2022-07-30T06:55:08.394Z,99.90
2022-07-30T07:05:10.632Z,99.90
2022-07-30T07:15:12.433Z,99.90
2022-07-30T07:25:14.142Z,99.90
2022-07-30T07:35:15.918Z,99.90
2022-07-30T07:45:17.681Z,99.90
2022-07-30T07:55:19.494Z,99.90
2022-07-30T08:05:21.423Z,99.90
2022-07-30T08:15:23.238Z,99.90
2022-07-30T08:25:24.923Z,99.90
2022-07-30T08:35:26.604Z,99.80
2022-07-30T08:45:35.211Z,99.00
2022-07-30T08:55:37.099Z,98.40
2022-07-30T09:05:39.048Z,97.60
2022-07-30T09:15:40.739Z,96.80
2022-07-30T09:25:48.216Z,94.90
2022-07-30T09:35:56.528Z,93.90
2022-07-30T09:46:00.440Z,92.30
2022-07-30T09:56:30.012Z,90.80
2022-07-30T10:06:38.087Z,87.30
2022-07-30T10:16:43.904Z,84.80
2022-07-30T10:26:50.034Z,80.20
2022-07-30T10:36:56.177Z,75.80
2022-07-30T10:47:07.144Z,77.30
2022-07-30T10:57:22.653Z,75.20
2022-07-30T11:07:29.125Z,70.10
2022-07-30T11:18:02.011Z,65.20
2022-07-30T11:28:04.061Z,59.80
2022-07-30T11:38:19.342Z,56.40
2022-07-30T11:48:22.250Z,56.10
2022-07-30T11:58:32.779Z,56.80
2022-07-30T12:08:47.341Z,58.00
2022-07-30T12:18:49.017Z,58.40
2022-07-30T12:28:51.243Z,56.90
2022-07-30T12:38:54.571Z,57.40
2022-07-30T12:49:08.914Z,57.40
2022-07-30T12:59:23.570Z,56.90
2022-07-30T13:09:25.244Z,56.10
2022-07-30T13:19:27.987Z,56.20
2022-07-30T13:29:29.650Z,56.70
2022-07-30T13:39:31.342Z,55.60
2022-07-30T13:49:35.199Z,55.30
2022-07-30T13:59:36.861Z,53.90
2022-07-30T14:09:44.889Z,53.20
2022-07-30T14:19:51.283Z,54.00
2022-07-30T14:29:52.937Z,53.60
2022-07-30T14:39:54.613Z,53.30
2022-07-30T14:49:56.297Z,52.70
2022-07-30T14:59:58.235Z,52.20
2022-07-30T15:09:59.965Z,51.70
2022-07-30T15:20:01.781Z,51.60
2022-07-30T15:30:05.590Z,51.50
2022-07-30T15:40:07.686Z,50.10
2022-07-30T15:50:09.918Z,50.00
2022-07-30T16:00:12.577Z,48.90
2022-07-30T16:10:14.381Z,49.40
2022-07-30T16:20:16.608Z,49.60
2022-07-30T16:30:18.401Z,49.70
2022-07-30T16:40:20.112Z,49.00
2022-07-30T16:50:21.974Z,49.10
2022-07-30T17:00:23.867Z,49.60
2022-07-30T17:10:26.533Z,49.20
2022-07-30T17:20:30.407Z,51.10
2022-07-30T17:30:32.246Z,55.10
2022-07-30T17:40:34.035Z,57.50
2022-07-30T17:50:35.936Z,59.20
2022-07-30T18:00:37.748Z,60.70
2022-07-30T18:10:40.428Z,62.60
2022-07-30T18:20:48.026Z,63.50
2022-07-30T18:30:51.185Z,64.40
2022-07-30T18:40:58.698Z,65.30
2022-07-30T18:51:00.734Z,66.20
2022-07-30T19:01:02.510Z,67.30
2022-07-30T19:11:04.246Z,68.50
2022-07-30T19:21:06.024Z,69.50
2022-07-30T19:31:07.780Z,70.50
2022-07-30T19:41:09.549Z,71.60
2022-07-30T19:51:20.764Z,72.00
2022-07-30T20:01:23.044Z,72.70
2022-07-30T20:11:42.649Z,73.30
2022-07-30T20:21:55.917Z,73.70
2022-07-30T20:31:59.101Z,74.40
2022-07-30T20:42:12.014Z,75.30
2022-07-30T20:52:14.494Z,75.80
2022-07-30T21:02:16.245Z,76.50
2022-07-30T21:12:18.163Z,78.00
2022-07-30T21:22:19.923Z,79.70
2022-07-30T21:32:25.698Z,81.10
2022-07-30T21:42:30.289Z,82.60
2022-07-30T21:52:32.234Z,83.70
2022-07-30T22:02:35.632Z,84.80
2022-07-30T22:12:38.099Z,86.20
2022-07-30T22:22:40.345Z,87.10
2022-07-30T22:32:43.299Z,88.10
2022-07-30T22:42:49.702Z,88.70
2022-07-30T22:52:56.167Z,89.60
2022-07-30T23:03:01.106Z,90.20
2022-07-30T23:13:04.197Z,90.70
2022-07-30T23:23:05.871Z,91.00
2022-07-30T23:33:07.552Z,91.30
2022-07-30T23:43:09.679Z,91.60
2022-07-30T23:53:11.319Z,91.80
